sensor_id;sensor_type;location;lat;lon;timestamp;temperature;humidity
4828;DHT22;2428;48.732;9.148;2023-01-05T00:01:05;9.60;99.90
4828;DHT22;2428;48.732;9.148;2023-01-05T00:03:32;9.60;99.90
4828;DHT22;2428;48.732;9.148;2023-01-05T00:06:17;9.60;99.90
4828;DHT22;2428;48.732;9.148;2023-01-05T00:08:45;9.50;99.90
4828;DHT22;2428;48.732;9.148;2023-01-05T00:13:56;9.60;99.90
4828;DHT22;2428;48.732;9.148;2023-01-05T00:16:40;9.60;99.90
4828;DHT22;2428;48.732;9.148;2023-01-05T00:19:24;9.60;99.90
4828;DHT22;2428;48.732;9.148;2023-01-05T00:27:35;9.60;99.90
4828;DHT22;2428;48.732;9.148;2023-01-05T00:30:02;9.60;99.90
4828;DHT22;2428;48.732;9.148;2023-01-05T00:32:28;9.60;99.90
4828;DHT22;2428;48.732;9.148;2023-01-05T00:34:55;9.60;99.90
4828;DHT22;2428;48.732;9.148;2023-01-05T00:37:22;9.70;99.90
4828;DHT22;2428;48.732;9.148;2023-01-05T00:39:49;9.70;99.90
4828;DHT22;2428;48.732;9.148;2023-01-05T00:42:14;9.70;99.90
4828;DHT22;2428;48.732;9.148;2023-01-05T00:44:40;9.70;99.90
4828;DHT22;2428;48.732;9.148;2023-01-05T00:47:06;9.70;99.90
4828;DHT22;2428;48.732;9.148;2023-01-05T00:49:31;9.70;99.90
4828;DHT22;2428;48.732;9.148;2023-01-05T00:51:57;9.70;99.90
4828;DHT22;2428;48.732;9.148;2023-01-05T00:54:22;9.70;99.90
4828;DHT22;2428;48.732;9.148;2023-01-05T00:56:48;9.70;99.90
4828;DHT22;2428;48.732;9.148;2023-01-05T00:59:17;9.70;99.90
4828;DHT22;2428;48.732;9.148;2023-01-05T01:01:47;9.70;99.90
4828;DHT22;2428;48.732;9.148;2023-01-05T01:04:13;9.70;99.90
4828;DHT22;2428;48.732;9.148;2023-01-05T01:06:39;9.70;99.90
4828;DHT22;2428;48.732;9.148;2023-01-05T01:09:05;9.70;99.90
4828;DHT22;2428;48.732;9.148;2023-01-05T01:11:30;9.70;99.90
4828;DHT22;2428;48.732;9.148;2023-01-05T01:13:56;9.70;99.90
4828;DHT22;2428;48.732;9.148;2023-01-05T01:16:22;9.70;99.90
4828;DHT22;2428;48.732;9.148;2023-01-05T01:18:48;9.70;99.90
4828;DHT22;2428;48.732;9.148;2023-01-05T01:21:14;9.70;99.90
4828;DHT22;2428;48.732;9.148;2023-01-05T01:23:39;9.70;99.90
4828;DHT22;2428;48.732;9.148;2023-01-05T01:26:07;9.70;99.90
4828;DHT22;2428;48.732;9.148;2023-01-05T01:28:34;9.70;99.90
4828;DHT22;2428;48.732;9.148;2023-01-05T01:31:00;9.70;99.90
4828;DHT22;2428;48.732;9.148;2023-01-05T01:33:26;9.70;99.90
4828;DHT22;2428;48.732;9.148;2023-01-05T01:35:52;9.70;99.90
4828;DHT22;2428;48.732;9.148;2023-01-05T01:38:18;9.70;99.90
4828;DHT22;2428;48.732;9.148;2023-01-05T01:40:45;9.70;99.90
4828;DHT22;2428;48.732;9.148;2023-01-05T01:43:17;9.70;99.90
4828;DHT22;2428;48.732;9.148;2023-01-05T01:45:43;9.70;99.90
4828;DHT22;2428;48.732;9.148;2023-01-05T01:48:10;9.70;99.90
4828;DHT22;2428;48.732;9.148;2023-01-05T01:50:43;9.70;99.90
4828;DHT22;2428;48.732;9.148;2023-01-05T01:53:20;9.70;99.90
4828;DHT22;2428;48.732;9.148;2023-01-05T01:55:47;9.60;99.90
4828;DHT22;2428;48.732;9.148;2023-01-05T01:58:16;9.60;99.90
4828;DHT22;2428;48.732;9.148;2023-01-05T02:00:43;9.60;99.90
4828;DHT22;2428;48.732;9.148;2023-01-05T02:03:09;9.60;99.90
4828;DHT22;2428;48.732;9.148;2023-01-05T02:05:35;9.60;99.90
4828;DHT22;2428;48.732;9.148;2023-01-05T02:08:02;9.60;99.90
4828;DHT22;2428;48.732;9.148;2023-01-05T02:13:37;9.60;99.90
4828;DHT22;2428;48.732;9.148;2023-01-05T02:18:39;9.60;99.90
4828;DHT22;2428;48.732;9.148;2023-01-05T02:26:50;9.60;99.90
4828;DHT22;2428;48.732;9.148;2023-01-05T02:32:21;9.60;99.90
4828;DHT22;2428;48.732;9.148;2023-01-05T02:40:19;9.60;99.90
4828;DHT22;2428;48.732;9.148;2023-01-05T02:42:47;9.60;99.90
4828;DHT22;2428;48.732;9.148;2023-01-05T02:45:15;9.60;99.90
4828;DHT22;2428;48.732;9.148;2023-01-05T02:47:42;9.60;99.90
4828;DHT22;2428;48.732;9.148;2023-01-05T02:50:16;9.60;99.90
4828;DHT22;2428;48.732;9.148;2023-01-05T02:52:52;9.60;99.90
4828;DHT22;2428;48.732;9.148;2023-01-05T02:55:26;9.60;99.90
4828;DHT22;2428;48.732;9.148;2023-01-05T03:00:59;9.60;99.90
4828;DHT22;2428;48.732;9.148;2023-01-05T03:03:41;9.60;99.90
4828;DHT22;2428;48.732;9.148;2023-01-05T03:06:14;9.60;99.90
4828;DHT22;2428;48.732;9.148;2023-01-05T03:08:51;9.60;99.90
4828;DHT22;2428;48.732;9.148;2023-01-05T03:11:18;9.60;99.90
4828;DHT22;2428;48.732;9.148;2023-01-05T03:14:05;9.60;99.90
4828;DHT22;2428;48.732;9.148;2023-01-05T03:16:35;9.70;99.90
4828;DHT22;2428;48.732;9.148;2023-01-05T03:19:04;9.70;99.90
4828;DHT22;2428;48.732;9.148;2023-01-05T03:21:50;9.70;99.90
4828;DHT22;2428;48.732;9.148;2023-01-05T03:24:36;9.70;99.90
4828;DHT22;2428;48.732;9.148;2023-01-05T03:27:22;9.70;99.90
4828;DHT22;2428;48.732;9.148;2023-01-05T03:30:08;9.70;99.90
4828;DHT22;2428;48.732;9.148;2023-01-05T03:33:01;9.70;99.90
4828;DHT22;2428;48.732;9.148;2023-01-05T03:35:47;9.80;99.90
4828;DHT22;2428;48.732;9.148;2023-01-05T03:38:19;9.80;99.90
4828;DHT22;2428;48.732;9.148;2023-01-05T03:40:50;9.80;99.90
4828;DHT22;2428;48.732;9.148;2023-01-05T03:43:17;9.80;99.90
4828;DHT22;2428;48.732;9.148;2023-01-05T03:45:45;9.90;99.90
4828;DHT22;2428;48.732;9.148;2023-01-05T03:48:16;9.90;99.90
4828;DHT22;2428;48.732;9.148;2023-01-05T03:50:41;9.90;99.90
4828;DHT22;2428;48.732;9.148;2023-01-05T03:53:07;10.10;99.90
4828;DHT22;2428;48.732;9.148;2023-01-05T03:55:33;10.10;99.90
4828;DHT22;2428;48.732;9.148;2023-01-05T03:57:58;10.10;99.90
4828;DHT22;2428;48.732;9.148;2023-01-05T04:00:24;10.20;99.90
4828;DHT22;2428;48.732;9.148;2023-01-05T04:02:50;10.20;99.90
4828;DHT22;2428;48.732;9.148;2023-01-05T04:05:16;10.20;99.90
4828;DHT22;2428;48.732;9.148;2023-01-05T04:07:41;10.30;99.90
4828;DHT22;2428;48.732;9.148;2023-01-05T04:10:07;10.30;99.90
4828;DHT22;2428;48.732;9.148;2023-01-05T04:12:33;10.30;99.90
4828;DHT22;2428;48.732;9.148;2023-01-05T04:14:58;10.30;99.90
4828;DHT22;2428;48.732;9.148;2023-01-05T04:17:24;10.30;99.90
4828;DHT22;2428;48.732;9.148;2023-01-05T04:19:50;10.30;99.90
4828;DHT22;2428;48.732;9.148;2023-01-05T04:22:15;10.30;99.90
4828;DHT22;2428;48.732;9.148;2023-01-05T04:24:41;10.40;99.90
4828;DHT22;2428;48.732;9.148;2023-01-05T04:27:06;10.40;99.90
4828;DHT22;2428;48.732;9.148;2023-01-05T04:29:32;10.40;99.90
4828;DHT22;2428;48.732;9.148;2023-01-05T04:31:57;10.40;99.90
4828;DHT22;2428;48.732;9.148;2023-01-05T04:34:23;10.40;99.90
4828;DHT22;2428;48.732;9.148;2023-01-05T04:36:48;10.40;99.90
4828;DHT22;2428;48.732;9.148;2023-01-05T04:39:15;10.40;99.90
4828;DHT22;2428;48.732;9.148;2023-01-05T04:41:40;10.40;99.90
4828;DHT22;2428;48.732;9.148;2023-01-05T04:44:06;10.40;99.90
4828;DHT22;2428;48.732;9.148;2023-01-05T04:46:32;10.40;99.90
4828;DHT22;2428;48.732;9.148;2023-01-05T04:48:57;10.40;99.90
4828;DHT22;2428;48.732;9.148;2023-01-05T04:51:23;10.40;99.90
4828;DHT22;2428;48.732;9.148;2023-01-05T04:53:48;10.40;99.90
4828;DHT22;2428;48.732;9.148;2023-01-05T04:56:14;10.40;99.90
4828;DHT22;2428;48.732;9.148;2023-01-05T04:58:40;10.40;99.90
4828;DHT22;2428;48.732;9.148;2023-01-05T05:01:06;10.40;99.90
4828;DHT22;2428;48.732;9.148;2023-01-05T05:03:31;10.40;99.90
4828;DHT22;2428;48.732;9.148;2023-01-05T05:05:57;10.40;99.90
4828;DHT22;2428;48.732;9.148;2023-01-05T05:08:22;10.40;99.90
4828;DHT22;2428;48.732;9.148;2023-01-05T05:10:48;10.30;99.90
4828;DHT22;2428;48.732;9.148;2023-01-05T05:13:13;10.30;99.90
4828;DHT22;2428;48.732;9.148;2023-01-05T05:15:39;10.30;99.90
4828;DHT22;2428;48.732;9.148;2023-01-05T05:18:05;10.30;99.90
4828;DHT22;2428;48.732;9.148;2023-01-05T05:20:30;10.30;99.90
4828;DHT22;2428;48.732;9.148;2023-01-05T05:22:56;10.30;99.90
4828;DHT22;2428;48.732;9.148;2023-01-05T05:25:21;10.30;99.90
4828;DHT22;2428;48.732;9.148;2023-01-05T05:27:47;10.30;99.90
4828;DHT22;2428;48.732;9.148;2023-01-05T05:30:13;10.30;99.90
4828;DHT22;2428;48.732;9.148;2023-01-05T05:32:38;10.30;99.90
4828;DHT22;2428;48.732;9.148;2023-01-05T05:35:04;10.20;99.90
4828;DHT22;2428;48.732;9.148;2023-01-05T05:37:31;10.20;99.90
4828;DHT22;2428;48.732;9.148;2023-01-05T05:39:56;10.20;99.90
4828;DHT22;2428;48.732;9.148;2023-01-05T05:42:22;10.20;99.90
4828;DHT22;2428;48.732;9.148;2023-01-05T05:44:47;10.20;99.90
4828;DHT22;2428;48.732;9.148;2023-01-05T05:47:13;10.20;99.90
4828;DHT22;2428;48.732;9.148;2023-01-05T05:49:38;10.10;99.90
4828;DHT22;2428;48.732;9.148;2023-01-05T05:52:04;10.10;99.90
4828;DHT22;2428;48.732;9.148;2023-01-05T05:54:30;10.10;99.90
4828;DHT22;2428;48.732;9.148;2023-01-05T05:56:55;10.10;99.90
4828;DHT22;2428;48.732;9.148;2023-01-05T05:59:21;10.10;99.90
4828;DHT22;2428;48.732;9.148;2023-01-05T06:01:46;10.00;99.90
4828;DHT22;2428;48.732;9.148;2023-01-05T06:04:12;10.00;99.90
4828;DHT22;2428;48.732;9.148;2023-01-05T06:06:37;9.90;99.90
4828;DHT22;2428;48.732;9.148;2023-01-05T06:09:04;9.90;99.90
4828;DHT22;2428;48.732;9.148;2023-01-05T06:11:30;10.00;99.90
4828;DHT22;2428;48.732;9.148;2023-01-05T06:13:55;10.00;99.90
4828;DHT22;2428;48.732;9.148;2023-01-05T06:16:21;10.00;99.90
4828;DHT22;2428;48.732;9.148;2023-01-05T06:18:46;10.00;99.90
4828;DHT22;2428;48.732;9.148;2023-01-05T06:21:12;10.00;99.90
4828;DHT22;2428;48.732;9.148;2023-01-05T06:23:38;9.90;99.90
4828;DHT22;2428;48.732;9.148;2023-01-05T06:26:03;10.00;99.90
4828;DHT22;2428;48.732;9.148;2023-01-05T06:28:29;9.90;99.90
4828;DHT22;2428;48.732;9.148;2023-01-05T06:30:55;10.00;99.90
4828;DHT22;2428;48.732;9.148;2023-01-05T06:33:20;9.80;99.90
4828;DHT22;2428;48.732;9.148;2023-01-05T06:35:46;9.80;99.90
4828;DHT22;2428;48.732;9.148;2023-01-05T06:38:11;9.80;99.90
4828;DHT22;2428;48.732;9.148;2023-01-05T06:40:41;9.80;99.90
4828;DHT22;2428;48.732;9.148;2023-01-05T06:43:10;9.80;99.90
4828;DHT22;2428;48.732;9.148;2023-01-05T06:45:35;9.80;99.90
4828;DHT22;2428;48.732;9.148;2023-01-05T06:48:01;9.80;99.90
4828;DHT22;2428;48.732;9.148;2023-01-05T06:50:28;9.80;99.90
4828;DHT22;2428;48.732;9.148;2023-01-05T06:52:54;9.80;99.90
4828;DHT22;2428;48.732;9.148;2023-01-05T06:55:20;9.80;99.90
4828;DHT22;2428;48.732;9.148;2023-01-05T06:57:46;9.80;99.90
4828;DHT22;2428;48.732;9.148;2023-01-05T07:00:13;9.70;99.90
4828;DHT22;2428;48.732;9.148;2023-01-05T07:02:38;9.70;99.90
4828;DHT22;2428;48.732;9.148;2023-01-05T07:05:04;9.70;99.90
4828;DHT22;2428;48.732;9.148;2023-01-05T07:07:30;9.70;99.90
4828;DHT22;2428;48.732;9.148;2023-01-05T07:09:55;9.60;99.90
4828;DHT22;2428;48.732;9.148;2023-01-05T07:12:21;9.50;99.90
4828;DHT22;2428;48.732;9.148;2023-01-05T07:14:47;9.50;99.90
4828;DHT22;2428;48.732;9.148;2023-01-05T07:17:12;9.50;99.90
4828;DHT22;2428;48.732;9.148;2023-01-05T07:19:38;9.50;99.90
4828;DHT22;2428;48.732;9.148;2023-01-05T07:22:04;9.50;99.90
4828;DHT22;2428;48.732;9.148;2023-01-05T07:24:30;9.50;99.90
4828;DHT22;2428;48.732;9.148;2023-01-05T07:26:57;9.50;99.90
4828;DHT22;2428;48.732;9.148;2023-01-05T07:29:23;9.50;99.90
4828;DHT22;2428;48.732;9.148;2023-01-05T07:31:49;9.50;99.90
4828;DHT22;2428;48.732;9.148;2023-01-05T07:34:17;9.50;99.90
4828;DHT22;2428;48.732;9.148;2023-01-05T07:36:42;9.50;99.90
4828;DHT22;2428;48.732;9.148;2023-01-05T07:39:08;9.50;99.90
4828;DHT22;2428;48.732;9.148;2023-01-05T07:41:34;9.50;99.90
4828;DHT22;2428;48.732;9.148;2023-01-05T07:43:59;9.60;99.90
4828;DHT22;2428;48.732;9.148;2023-01-05T07:46:25;9.60;99.90
4828;DHT22;2428;48.732;9.148;2023-01-05T07:48:50;9.60;99.90
4828;DHT22;2428;48.732;9.148;2023-01-05T07:51:16;9.60;99.90
4828;DHT22;2428;48.732;9.148;2023-01-05T07:53:42;9.60;99.90
4828;DHT22;2428;48.732;9.148;2023-01-05T07:56:09;9.60;99.90
4828;DHT22;2428;48.732;9.148;2023-01-05T07:58:35;9.60;99.90
4828;DHT22;2428;48.732;9.148;2023-01-05T08:01:05;9.60;99.90
4828;DHT22;2428;48.732;9.148;2023-01-05T08:03:31;9.70;99.90
4828;DHT22;2428;48.732;9.148;2023-01-05T08:05:57;9.70;99.90
4828;DHT22;2428;48.732;9.148;2023-01-05T08:08:22;9.60;99.90
4828;DHT22;2428;48.732;9.148;2023-01-05T08:10:48;9.70;99.90
4828;DHT22;2428;48.732;9.148;2023-01-05T08:13:13;9.70;99.90
4828;DHT22;2428;48.732;9.148;2023-01-05T08:15:57;9.70;99.90
4828;DHT22;2428;48.732;9.148;2023-01-05T08:18:26;9.70;99.90
4828;DHT22;2428;48.732;9.148;2023-01-05T08:20:57;9.60;99.90
4828;DHT22;2428;48.732;9.148;2023-01-05T08:23:26;9.60;99.90
4828;DHT22;2428;48.732;9.148;2023-01-05T08:25:53;9.60;99.90
4828;DHT22;2428;48.732;9.148;2023-01-05T08:28:19;9.70;99.90
4828;DHT22;2428;48.732;9.148;2023-01-05T08:30:44;9.70;99.90
4828;DHT22;2428;48.732;9.148;2023-01-05T08:33:10;9.70;99.90
4828;DHT22;2428;48.732;9.148;2023-01-05T08:35:40;9.80;99.90
4828;DHT22;2428;48.732;9.148;2023-01-05T08:38:06;9.80;99.90
4828;DHT22;2428;48.732;9.148;2023-01-05T08:40:31;9.80;99.90
4828;DHT22;2428;48.732;9.148;2023-01-05T08:42:57;9.80;99.90
4828;DHT22;2428;48.732;9.148;2023-01-05T08:45:23;9.80;99.90
4828;DHT22;2428;48.732;9.148;2023-01-05T08:47:48;9.80;99.90
4828;DHT22;2428;48.732;9.148;2023-01-05T08:50:14;9.80;99.90
4828;DHT22;2428;48.732;9.148;2023-01-05T08:52:40;9.80;99.90
4828;DHT22;2428;48.732;9.148;2023-01-05T08:55:06;9.80;99.90
4828;DHT22;2428;48.732;9.148;2023-01-05T08:57:32;9.80;99.90
4828;DHT22;2428;48.732;9.148;2023-01-05T08:59:58;9.80;99.90
4828;DHT22;2428;48.732;9.148;2023-01-05T09:02:24;9.80;99.90
4828;DHT22;2428;48.732;9.148;2023-01-05T09:04:50;9.80;99.90
4828;DHT22;2428;48.732;9.148;2023-01-05T09:07:16;9.90;99.90
4828;DHT22;2428;48.732;9.148;2023-01-05T09:09:41;9.80;99.90
4828;DHT22;2428;48.732;9.148;2023-01-05T09:12:07;9.80;99.90
4828;DHT22;2428;48.732;9.148;2023-01-05T09:14:33;9.80;99.90
4828;DHT22;2428;48.732;9.148;2023-01-05T09:16:58;9.80;99.90
4828;DHT22;2428;48.732;9.148;2023-01-05T09:19:24;9.80;99.90
4828;DHT22;2428;48.732;9.148;2023-01-05T09:21:49;9.80;99.90
4828;DHT22;2428;48.732;9.148;2023-01-05T09:24:16;9.80;99.90
4828;DHT22;2428;48.732;9.148;2023-01-05T09:26:42;9.80;99.90
4828;DHT22;2428;48.732;9.148;2023-01-05T09:29:09;9.80;99.90
4828;DHT22;2428;48.732;9.148;2023-01-05T09:31:34;9.80;99.90
4828;DHT22;2428;48.732;9.148;2023-01-05T09:34:00;9.80;99.90
4828;DHT22;2428;48.732;9.148;2023-01-05T09:36:26;9.80;99.90
4828;DHT22;2428;48.732;9.148;2023-01-05T09:38:52;9.80;99.90
4828;DHT22;2428;48.732;9.148;2023-01-05T09:41:37;9.80;99.90
4828;DHT22;2428;48.732;9.148;2023-01-05T09:46:50;9.80;99.90
4828;DHT22;2428;48.732;9.148;2023-01-05T09:49:21;9.80;99.90
4828;DHT22;2428;48.732;9.148;2023-01-05T09:51:49;9.80;99.90
4828;DHT22;2428;48.732;9.148;2023-01-05T09:54:18;9.90;99.90
4828;DHT22;2428;48.732;9.148;2023-01-05T09:56:46;9.90;99.90
4828;DHT22;2428;48.732;9.148;2023-01-05T09:59:25;9.90;99.90
4828;DHT22;2428;48.732;9.148;2023-01-05T10:01:55;9.90;99.90
4828;DHT22;2428;48.732;9.148;2023-01-05T10:04:24;10.00;99.90
4828;DHT22;2428;48.732;9.148;2023-01-05T10:06:52;10.00;99.90
4828;DHT22;2428;48.732;9.148;2023-01-05T10:09:22;10.00;99.90
4828;DHT22;2428;48.732;9.148;2023-01-05T10:12:20;10.00;99.90
4828;DHT22;2428;48.732;9.148;2023-01-05T10:17:35;10.10;99.90
4828;DHT22;2428;48.732;9.148;2023-01-05T10:20:16;10.10;99.90
4828;DHT22;2428;48.732;9.148;2023-01-05T10:22:48;10.10;99.90
4828;DHT22;2428;48.732;9.148;2023-01-05T10:30:58;10.20;99.90
4828;DHT22;2428;48.732;9.148;2023-01-05T10:33:43;10.20;99.90
4828;DHT22;2428;48.732;9.148;2023-01-05T10:39:40;10.30;99.90
4828;DHT22;2428;48.732;9.148;2023-01-05T10:47:14;10.40;99.90
4828;DHT22;2428;48.732;9.148;2023-01-05T10:49:42;10.40;99.90
4828;DHT22;2428;48.732;9.148;2023-01-05T10:52:12;10.40;99.90
4828;DHT22;2428;48.732;9.148;2023-01-05T10:54:43;10.40;99.90
4828;DHT22;2428;48.732;9.148;2023-01-05T11:02:34;10.40;99.90
4828;DHT22;2428;48.732;9.148;2023-01-05T11:08:05;10.50;99.90
4828;DHT22;2428;48.732;9.148;2023-01-05T11:10:39;10.50;99.90
4828;DHT22;2428;48.732;9.148;2023-01-05T11:13:17;10.50;99.90
4828;DHT22;2428;48.732;9.148;2023-01-05T11:15:48;10.50;99.90
4828;DHT22;2428;48.732;9.148;2023-01-05T11:18:31;10.50;99.90
4828;DHT22;2428;48.732;9.148;2023-01-05T11:23:57;10.50;99.90
4828;DHT22;2428;48.732;9.148;2023-01-05T11:26:32;10.40;99.90
4828;DHT22;2428;48.732;9.148;2023-01-05T11:36:59;10.50;99.90
4828;DHT22;2428;48.732;9.148;2023-01-05T11:42:08;10.50;99.90
4828;DHT22;2428;48.732;9.148;2023-01-05T11:44:36;10.50;99.90
4828;DHT22;2428;48.732;9.148;2023-01-05T11:47:03;10.50;99.90
4828;DHT22;2428;48.732;9.148;2023-01-05T11:49:29;10.50;99.90
4828;DHT22;2428;48.732;9.148;2023-01-05T11:51:54;10.50;99.90
4828;DHT22;2428;48.732;9.148;2023-01-05T11:57:16;10.50;99.90
4828;DHT22;2428;48.732;9.148;2023-01-05T11:59:44;10.50;99.90
4828;DHT22;2428;48.732;9.148;2023-01-05T12:05:20;10.50;99.90
4828;DHT22;2428;48.732;9.148;2023-01-05T12:08:12;10.50;99.90
4828;DHT22;2428;48.732;9.148;2023-01-05T12:10:51;10.50;99.90
4828;DHT22;2428;48.732;9.148;2023-01-05T12:21:25;10.60;99.90
4828;DHT22;2428;48.732;9.148;2023-01-05T12:38:22;10.60;99.90
4828;DHT22;2428;48.732;9.148;2023-01-05T12:43:36;10.60;99.90
4828;DHT22;2428;48.732;9.148;2023-01-05T12:49:00;10.50;99.90
4828;DHT22;2428;48.732;9.148;2023-01-05T12:51:48;10.60;99.90
4828;DHT22;2428;48.732;9.148;2023-01-05T12:54:39;10.60;99.90
4828;DHT22;2428;48.732;9.148;2023-01-05T13:00:11;10.60;99.90
4828;DHT22;2428;48.732;9.148;2023-01-05T13:02:42;10.60;99.90
4828;DHT22;2428;48.732;9.148;2023-01-05T13:05:40;10.60;99.90
4828;DHT22;2428;48.732;9.148;2023-01-05T13:13:39;10.50;99.90
4828;DHT22;2428;48.732;9.148;2023-01-05T13:16:28;10.50;99.90
4828;DHT22;2428;48.732;9.148;2023-01-05T13:19:16;10.50;99.90
4828;DHT22;2428;48.732;9.148;2023-01-05T13:21:43;10.60;99.90
4828;DHT22;2428;48.732;9.148;2023-01-05T13:24:17;10.50;99.90
4828;DHT22;2428;48.732;9.148;2023-01-05T13:26:47;10.60;99.90
4828;DHT22;2428;48.732;9.148;2023-01-05T13:29:26;10.50;99.90
4828;DHT22;2428;48.732;9.148;2023-01-05T13:32:31;10.50;99.90
4828;DHT22;2428;48.732;9.148;2023-01-05T13:35:24;10.50;99.90
4828;DHT22;2428;48.732;9.148;2023-01-05T13:46:47;10.50;99.90
4828;DHT22;2428;48.732;9.148;2023-01-05T13:52:45;10.50;99.90
4828;DHT22;2428;48.732;9.148;2023-01-05T13:55:17;10.50;99.90
4828;DHT22;2428;48.732;9.148;2023-01-05T13:57:45;10.50;99.90
4828;DHT22;2428;48.732;9.148;2023-01-05T14:00:23;10.50;99.90
4828;DHT22;2428;48.732;9.148;2023-01-05T14:03:14;10.50;99.90
4828;DHT22;2428;48.732;9.148;2023-01-05T14:05:49;10.50;99.90
4828;DHT22;2428;48.732;9.148;2023-01-05T14:08:22;10.40;99.90
4828;DHT22;2428;48.732;9.148;2023-01-05T14:11:13;10.40;99.90
4828;DHT22;2428;48.732;9.148;2023-01-05T14:14:05;10.40;99.90
4828;DHT22;2428;48.732;9.148;2023-01-05T14:16:49;10.40;99.90
4828;DHT22;2428;48.732;9.148;2023-01-05T14:19:25;10.40;99.90
4828;DHT22;2428;48.732;9.148;2023-01-05T14:24:38;10.40;99.90
4828;DHT22;2428;48.732;9.148;2023-01-05T14:32:10;10.50;99.90
4828;DHT22;2428;48.732;9.148;2023-01-05T14:34:47;10.40;99.90
4828;DHT22;2428;48.732;9.148;2023-01-05T14:37:40;10.40;99.90
4828;DHT22;2428;48.732;9.148;2023-01-05T14:40:40;10.40;99.90
4828;DHT22;2428;48.732;9.148;2023-01-05T14:46:06;10.40;99.90
4828;DHT22;2428;48.732;9.148;2023-01-05T14:48:39;10.40;99.90
4828;DHT22;2428;48.732;9.148;2023-01-05T14:51:17;10.40;99.90
4828;DHT22;2428;48.732;9.148;2023-01-05T14:53:49;10.40;99.90
4828;DHT22;2428;48.732;9.148;2023-01-05T14:56:19;10.40;99.90
4828;DHT22;2428;48.732;9.148;2023-01-05T15:04:22;10.40;99.90
4828;DHT22;2428;48.732;9.148;2023-01-05T15:20:51;10.30;99.90
4828;DHT22;2428;48.732;9.148;2023-01-05T15:32:08;10.30;99.90
4828;DHT22;2428;48.732;9.148;2023-01-05T15:34:40;10.30;99.90
4828;DHT22;2428;48.732;9.148;2023-01-05T15:37:20;10.30;99.90
4828;DHT22;2428;48.732;9.148;2023-01-05T15:39:51;10.30;99.90
4828;DHT22;2428;48.732;9.148;2023-01-05T15:42:40;10.30;99.90
4828;DHT22;2428;48.732;9.148;2023-01-05T15:45:15;10.30;99.90
4828;DHT22;2428;48.732;9.148;2023-01-05T15:47:41;10.30;99.90
4828;DHT22;2428;48.732;9.148;2023-01-05T15:50:19;10.30;99.90
4828;DHT22;2428;48.732;9.148;2023-01-05T15:52:59;10.30;99.90
4828;DHT22;2428;48.732;9.148;2023-01-05T15:55:27;10.20;99.90
4828;DHT22;2428;48.732;9.148;2023-01-05T15:58:01;10.30;99.90
4828;DHT22;2428;48.732;9.148;2023-01-05T16:00:31;10.30;99.90
4828;DHT22;2428;48.732;9.148;2023-01-05T16:02:57;10.30;99.90
4828;DHT22;2428;48.732;9.148;2023-01-05T16:05:24;10.30;99.90
4828;DHT22;2428;48.732;9.148;2023-01-05T16:08:00;10.30;99.90
4828;DHT22;2428;48.732;9.148;2023-01-05T16:10:58;10.30;99.90
4828;DHT22;2428;48.732;9.148;2023-01-05T16:15:58;10.20;99.90
4828;DHT22;2428;48.732;9.148;2023-01-05T16:18:33;10.20;99.90
4828;DHT22;2428;48.732;9.148;2023-01-05T16:21:13;10.20;99.90
4828;DHT22;2428;48.732;9.148;2023-01-05T16:24:13;10.20;99.90
4828;DHT22;2428;48.732;9.148;2023-01-05T16:26:40;10.20;99.90
4828;DHT22;2428;48.732;9.148;2023-01-05T16:29:30;10.20;99.90
4828;DHT22;2428;48.732;9.148;2023-01-05T16:31:56;10.20;99.90
4828;DHT22;2428;48.732;9.148;2023-01-05T16:34:22;10.20;99.90
4828;DHT22;2428;48.732;9.148;2023-01-05T16:37:06;10.10;99.90
4828;DHT22;2428;48.732;9.148;2023-01-05T16:39:37;10.10;99.90
4828;DHT22;2428;48.732;9.148;2023-01-05T16:42:20;10.10;99.90
4828;DHT22;2428;48.732;9.148;2023-01-05T16:45:31;10.10;99.90
4828;DHT22;2428;48.732;9.148;2023-01-05T16:47:57;10.10;99.90
4828;DHT22;2428;48.732;9.148;2023-01-05T16:52:58;10.10;99.90
4828;DHT22;2428;48.732;9.148;2023-01-05T16:55:31;10.10;99.90
4828;DHT22;2428;48.732;9.148;2023-01-05T16:57:58;10.10;99.90
4828;DHT22;2428;48.732;9.148;2023-01-05T17:03:13;10.10;99.90
4828;DHT22;2428;48.732;9.148;2023-01-05T17:05:39;10.10;99.90
4828;DHT22;2428;48.732;9.148;2023-01-05T17:08:10;10.10;99.90
4828;DHT22;2428;48.732;9.148;2023-01-05T17:10:40;10.10;99.90
4828;DHT22;2428;48.732;9.148;2023-01-05T17:13:21;10.10;99.90
4828;DHT22;2428;48.732;9.148;2023-01-05T17:15:49;10.10;99.90
4828;DHT22;2428;48.732;9.148;2023-01-05T17:18:24;10.10;99.90
4828;DHT22;2428;48.732;9.148;2023-01-05T17:20:51;10.00;99.90
4828;DHT22;2428;48.732;9.148;2023-01-05T17:25:46;10.00;99.90
4828;DHT22;2428;48.732;9.148;2023-01-05T17:28:11;10.00;99.90
4828;DHT22;2428;48.732;9.148;2023-01-05T17:30:37;10.00;99.90
4828;DHT22;2428;48.732;9.148;2023-01-05T17:33:03;10.10;99.90
4828;DHT22;2428;48.732;9.148;2023-01-05T17:35:30;10.00;99.90
4828;DHT22;2428;48.732;9.148;2023-01-05T17:37:56;10.00;99.90
4828;DHT22;2428;48.732;9.148;2023-01-05T17:40:22;10.00;99.90
4828;DHT22;2428;48.732;9.148;2023-01-05T17:42:48;10.00;99.90
4828;DHT22;2428;48.732;9.148;2023-01-05T17:45:16;10.00;99.90
4828;DHT22;2428;48.732;9.148;2023-01-05T17:47:42;10.00;99.90
4828;DHT22;2428;48.732;9.148;2023-01-05T17:50:13;10.00;99.90
4828;DHT22;2428;48.732;9.148;2023-01-05T17:52:39;10.00;99.90
4828;DHT22;2428;48.732;9.148;2023-01-05T17:55:05;10.00;99.90
4828;DHT22;2428;48.732;9.148;2023-01-05T17:57:30;9.90;99.90
4828;DHT22;2428;48.732;9.148;2023-01-05T17:59:56;9.90;99.90
4828;DHT22;2428;48.732;9.148;2023-01-05T18:02:22;9.90;99.90
4828;DHT22;2428;48.732;9.148;2023-01-05T18:04:47;9.90;99.90
4828;DHT22;2428;48.732;9.148;2023-01-05T18:07:13;9.90;99.90
4828;DHT22;2428;48.732;9.148;2023-01-05T18:09:38;9.90;99.90
4828;DHT22;2428;48.732;9.148;2023-01-05T18:12:04;10.00;99.90
4828;DHT22;2428;48.732;9.148;2023-01-05T18:14:30;10.00;99.90
4828;DHT22;2428;48.732;9.148;2023-01-05T18:16:55;10.00;99.90
4828;DHT22;2428;48.732;9.148;2023-01-05T18:19:21;10.00;99.90
4828;DHT22;2428;48.732;9.148;2023-01-05T18:21:46;10.00;99.90
4828;DHT22;2428;48.732;9.148;2023-01-05T18:24:12;10.00;99.90
4828;DHT22;2428;48.732;9.148;2023-01-05T18:26:38;10.00;99.90
4828;DHT22;2428;48.732;9.148;2023-01-05T18:29:03;10.00;99.90
4828;DHT22;2428;48.732;9.148;2023-01-05T18:31:29;10.00;99.90
4828;DHT22;2428;48.732;9.148;2023-01-05T18:33:54;10.00;99.90
4828;DHT22;2428;48.732;9.148;2023-01-05T18:36:20;10.10;99.90
4828;DHT22;2428;48.732;9.148;2023-01-05T18:38:46;10.10;99.90
4828;DHT22;2428;48.732;9.148;2023-01-05T18:41:11;10.10;99.90
4828;DHT22;2428;48.732;9.148;2023-01-05T18:43:38;10.10;99.90
4828;DHT22;2428;48.732;9.148;2023-01-05T18:46:04;10.10;99.90
4828;DHT22;2428;48.732;9.148;2023-01-05T18:48:30;10.10;99.90
4828;DHT22;2428;48.732;9.148;2023-01-05T18:50:56;10.10;99.90
4828;DHT22;2428;48.732;9.148;2023-01-05T18:53:22;10.10;99.90
4828;DHT22;2428;48.732;9.148;2023-01-05T18:55:48;10.10;99.90
4828;DHT22;2428;48.732;9.148;2023-01-05T18:58:14;10.10;99.90
4828;DHT22;2428;48.732;9.148;2023-01-05T19:00:40;10.10;99.90
4828;DHT22;2428;48.732;9.148;2023-01-05T19:03:07;10.10;99.90
4828;DHT22;2428;48.732;9.148;2023-01-05T19:05:37;10.10;99.90
4828;DHT22;2428;48.732;9.148;2023-01-05T19:08:05;10.10;99.90
4828;DHT22;2428;48.732;9.148;2023-01-05T19:10:31;10.20;99.90
4828;DHT22;2428;48.732;9.148;2023-01-05T19:12:57;10.20;99.90
4828;DHT22;2428;48.732;9.148;2023-01-05T19:15:22;10.10;99.90
4828;DHT22;2428;48.732;9.148;2023-01-05T19:17:48;10.10;99.90
4828;DHT22;2428;48.732;9.148;2023-01-05T19:20:15;10.10;99.90
4828;DHT22;2428;48.732;9.148;2023-01-05T19:22:40;10.10;99.90